createdAt,value
2023-02-22T00:00:23.856Z,2.986
2023-02-22T00:01:24.464Z,2.919
2023-02-22T00:02:24.230Z,2.860
2023-02-22T00:03:23.986Z,2.807
2023-02-22T00:04:23.783Z,2.745
2023-02-22T00:05:24.364Z,2.716
2023-02-22T00:06:23.981Z,2.564
2023-02-22T00:07:25.380Z,2.433
2023-02-22T00:08:23.988Z,2.334
2023-02-22T00:09:24.615Z,2.297
2023-02-22T00:10:24.304Z,2.201
2023-02-22T00:11:24.020Z,2.105
2023-02-22T00:12:23.785Z,2.161
2023-02-22T00:13:24.441Z,2.169
2023-02-22T00:14:24.169Z,2.286
2023-02-22T00:15:23.837Z,2.222
2023-02-22T00:16:24.671Z,2.233
2023-02-22T00:17:24.585Z,2.211
2023-02-22T00:18:24.241Z,2.230
2023-02-22T00:19:23.841Z,2.155
2023-02-22T00:20:24.496Z,2.099
2023-02-22T00:21:24.195Z,2.070
2023-02-22T00:22:23.913Z,2.049
2023-02-22T00:23:24.803Z,2.054
2023-02-22T00:24:24.503Z,2.195
2023-02-22T00:25:24.089Z,2.113
2023-02-22T00:26:23.721Z,2.014
2023-02-22T00:27:24.360Z,2.134
2023-02-22T00:28:24.000Z,1.966
2023-02-22T00:29:24.654Z,1.880
2023-02-22T00:30:24.429Z,1.843
2023-02-22T00:31:24.206Z,1.875
2023-02-22T00:32:23.908Z,1.851
2023-02-22T00:33:24.589Z,1.939
2023-02-22T00:34:24.486Z,1.934
2023-02-22T00:35:24.379Z,1.934
2023-02-22T00:36:24.047Z,1.912
2023-02-22T00:37:23.667Z,1.843
2023-02-22T00:38:24.215Z,1.878
2023-02-22T00:39:24.080Z,1.846
2023-02-22T00:40:23.725Z,1.854
2023-02-22T00:41:24.411Z,1.899
2023-02-22T00:42:24.237Z,1.947
2023-02-22T00:43:23.961Z,1.910
2023-02-22T00:44:24.601Z,1.795
2023-02-22T00:45:24.226Z,1.926
2023-02-22T00:46:24.033Z,2.019
2023-02-22T00:47:23.707Z,1.888
2023-02-22T00:48:24.337Z,2.019
2023-02-22T00:49:24.005Z,1.950
2023-02-22T00:50:24.567Z,1.998
2023-02-22T00:51:24.210Z,1.971
2023-02-22T00:52:23.857Z,1.878
2023-02-22T00:53:24.529Z,1.934
2023-02-22T00:54:24.448Z,1.982
2023-02-22T00:55:24.040Z,1.784
2023-02-22T00:56:23.772Z,1.693
2023-02-22T00:57:24.425Z,1.667
2023-02-22T00:58:23.739Z,1.568
2023-02-22T00:59:24.277Z,1.643
2023-02-22T01:00:23.893Z,1.608
2023-02-22T01:01:24.640Z,1.579
2023-02-22T01:02:24.533Z,1.669
2023-02-22T01:03:25.469Z,1.771
2023-02-22T01:04:24.694Z,1.731
2023-02-22T01:05:23.749Z,1.653
2023-02-22T01:06:23.748Z,1.667
2023-02-22T01:07:24.325Z,1.643
2023-02-22T01:08:23.945Z,1.720
2023-02-22T01:09:24.579Z,1.784
2023-02-22T01:10:24.242Z,1.725
2023-02-22T01:11:23.866Z,1.699
2023-02-22T01:12:24.533Z,1.712
2023-02-22T01:13:24.387Z,1.757
2023-02-22T01:14:23.969Z,1.790
2023-02-22T01:15:24.650Z,1.725
2023-02-22T01:16:24.322Z,1.656
2023-02-22T01:17:24.057Z,1.619
2023-02-22T01:18:23.764Z,1.552
2023-02-22T01:19:24.504Z,1.557
2023-02-22T01:20:24.180Z,1.667
2023-02-22T01:21:23.768Z,1.541
2023-02-22T01:22:24.468Z,1.488
2023-02-22T01:23:24.260Z,1.456
2023-02-22T01:24:23.864Z,1.528
2023-02-22T01:25:24.457Z,1.520
2023-02-22T01:26:24.141Z,1.528
2023-02-22T01:27:23.832Z,1.520
2023-02-22T01:28:24.644Z,1.528
2023-02-22T01:29:24.408Z,1.517
2023-02-22T01:30:24.286Z,1.474
2023-02-22T01:31:24.497Z,1.490
2023-02-22T01:32:24.464Z,1.520
2023-02-22T01:33:24.024Z,1.442
2023-02-22T01:34:23.660Z,1.368
2023-02-22T01:35:24.331Z,1.378
2023-02-22T01:36:23.931Z,1.421
2023-02-22T01:37:24.588Z,1.389
2023-02-22T01:38:24.357Z,1.328
2023-02-22T01:39:23.870Z,1.199
2023-02-22T01:40:24.509Z,1.191
2023-02-22T01:41:24.116Z,1.194
2023-02-22T01:42:23.821Z,1.141
2023-02-22T01:43:24.449Z,1.061
2023-02-22T01:44:24.061Z,1.015
2023-02-22T01:45:24.837Z,1.077
2023-02-22T01:46:24.642Z,1.277
2023-02-22T01:47:24.299Z,1.424
2023-02-22T01:48:23.945Z,1.560
2023-02-22T01:49:24.541Z,1.464
2023-02-22T01:50:24.133Z,1.426
2023-02-22T01:51:23.786Z,1.287
2023-02-22T01:52:24.452Z,1.279
2023-02-22T01:53:24.021Z,1.325
2023-02-22T01:54:23.731Z,1.389
2023-02-22T01:55:24.340Z,1.378
2023-02-22T01:56:24.003Z,1.293
2023-02-22T01:57:23.755Z,1.229
2023-02-22T01:58:24.280Z,1.274
2023-02-22T01:59:23.896Z,1.221
2023-02-22T02:00:24.601Z,1.389
2023-02-22T02:01:24.212Z,1.552
2023-02-22T02:02:23.892Z,1.493
2023-02-22T02:03:24.516Z,1.739
2023-02-22T02:04:24.132Z,1.736
2023-02-22T02:05:24.142Z,1.648
2023-02-22T02:06:23.864Z,1.490
2023-02-22T02:07:24.603Z,1.408
2023-02-22T02:08:24.255Z,1.282
2023-02-22T02:09:23.869Z,1.277
2023-02-22T02:10:24.513Z,1.261
2023-02-22T02:11:26.645Z,1.197
2023-02-22T02:12:24.275Z,1.333
2023-02-22T02:13:24.154Z,1.197
2023-02-22T02:14:23.804Z,1.229
2023-02-22T02:15:24.612Z,1.106
2023-02-22T02:16:24.429Z,1.106
2023-02-22T02:17:24.349Z,0.956
2023-02-22T02:19:24.853Z,0.895
2023-02-22T02:20:24.612Z,0.892
2023-02-22T02:21:24.209Z,0.879
2023-02-22T02:22:23.952Z,0.836
2023-02-22T02:23:23.763Z,0.799
2023-02-22T02:24:24.319Z,0.818
2023-02-22T02:25:23.936Z,0.959
2023-02-22T02:26:24.555Z,1.202
2023-02-22T02:27:24.142Z,1.493
2023-02-22T02:28:23.864Z,1.731
2023-02-22T02:29:24.567Z,1.875
2023-02-22T02:30:24.341Z,1.939
2023-02-22T02:31:24.239Z,1.896
2023-02-22T02:32:24.353Z,1.926
2023-02-22T02:33:24.565Z,2.008
2023-02-22T02:34:24.228Z,2.078
2023-02-22T02:35:23.874Z,2.110
2023-02-22T02:36:24.508Z,2.083
2023-02-22T02:37:24.147Z,2.115
2023-02-22T02:38:23.866Z,2.102
2023-02-22T02:39:23.849Z,2.075
2023-02-22T02:40:24.676Z,1.992
2023-02-22T02:41:24.411Z,1.963
2023-02-22T02:42:24.144Z,1.899
2023-02-22T02:43:23.937Z,1.840
2023-02-22T02:44:24.619Z,1.704
2023-02-22T02:45:24.307Z,1.712
2023-02-22T02:46:23.972Z,1.592
2023-02-22T02:47:24.677Z,1.627
2023-02-22T02:48:24.429Z,1.538
2023-02-22T02:49:23.994Z,1.571
2023-02-22T02:50:24.644Z,1.442
2023-02-22T02:51:24.284Z,1.341
2023-02-22T02:52:23.909Z,1.328
2023-02-22T02:53:24.518Z,1.373
2023-02-22T02:54:24.069Z,1.352
2023-02-22T02:55:23.687Z,1.325
2023-02-22T02:56:24.306Z,1.453
2023-02-22T02:57:23.912Z,1.442
2023-02-22T02:58:24.550Z,1.370
2023-02-22T02:59:24.228Z,1.290
2023-02-22T03:00:23.856Z,1.266
2023-02-22T03:01:24.622Z,1.269
2023-02-22T03:02:24.372Z,1.237
2023-02-22T03:03:24.137Z,1.178
2023-02-22T03:04:23.741Z,1.074
2023-02-22T03:05:24.433Z,1.023
2023-02-22T03:06:24.047Z,0.935
2023-02-22T03:07:23.844Z,0.858
2023-02-22T03:08:24.582Z,0.775
2023-02-22T03:09:24.485Z,0.684
2023-02-22T03:10:24.133Z,0.695
2023-02-22T03:11:23.896Z,0.700
2023-02-22T03:12:24.632Z,0.799
2023-02-22T03:13:24.342Z,0.689
2023-02-22T03:14:23.961Z,0.647
2023-02-22T03:15:23.714Z,0.620
2023-02-22T03:16:24.669Z,0.593
2023-02-22T03:17:24.619Z,0.625
2023-02-22T03:18:24.288Z,0.692
2023-02-22T03:19:23.984Z,0.623
2023-02-22T03:20:24.599Z,0.513
2023-02-22T03:21:24.338Z,0.441
2023-02-22T03:22:24.057Z,0.505
2023-02-22T03:23:23.821Z,0.430
2023-02-22T03:24:24.356Z,0.289
2023-02-22T03:25:24.080Z,0.238
2023-02-22T03:26:23.721Z,0.278
2023-02-22T03:27:24.392Z,0.286
2023-02-22T03:28:24.020Z,0.299
2023-02-22T03:29:24.596Z,0.315
2023-02-22T03:30:24.527Z,0.396
2023-02-22T03:31:24.676Z,0.438
2023-02-22T03:32:24.543Z,0.526
2023-02-22T03:33:24.296Z,0.588
2023-02-22T03:34:24.058Z,0.566
2023-02-22T03:35:24.360Z,0.588
2023-02-22T03:36:23.965Z,0.583
2023-02-22T03:37:24.594Z,0.695
2023-02-22T03:38:24.406Z,0.655
2023-02-22T03:39:24.127Z,0.585
2023-02-22T03:40:23.721Z,0.593
2023-02-22T03:41:24.365Z,0.633
2023-02-22T03:42:24.073Z,0.623
2023-02-22T03:43:23.849Z,0.537
2023-02-22T03:44:24.569Z,0.732
2023-02-22T03:45:24.284Z,0.964
2023-02-22T03:46:24.104Z,1.004
2023-02-22T03:47:24.072Z,1.028
2023-02-22T03:48:23.879Z,1.036
2023-02-22T03:49:23.935Z,1.063
2023-02-22T03:50:24.708Z,0.988
2023-02-22T03:51:24.373Z,0.924
2023-02-22T03:52:23.995Z,0.884
2023-02-22T03:53:23.787Z,0.834
2023-02-22T03:54:24.420Z,0.769
2023-02-22T03:55:24.027Z,0.679
2023-02-22T03:56:24.600Z,0.695
2023-02-22T03:57:24.312Z,0.700
2023-02-22T03:58:24.076Z,0.671
2023-02-22T03:59:23.655Z,0.676
2023-02-22T04:00:24.410Z,0.647
2023-02-22T04:01:24.209Z,0.719
2023-02-22T04:02:23.952Z,0.681
2023-02-22T04:03:24.580Z,0.740
2023-02-22T04:04:24.399Z,0.769
2023-02-22T04:05:24.138Z,0.671
2023-02-22T04:06:23.853Z,0.518
2023-02-22T04:07:24.589Z,0.420
2023-02-22T04:08:24.458Z,0.348
2023-02-22T04:09:24.184Z,0.187
2023-02-22T04:10:23.836Z,0.155
2023-02-22T04:11:24.687Z,0.113
2023-02-22T04:12:24.337Z,0.142
2023-02-22T04:13:23.992Z,0.118
2023-02-22T04:14:24.549Z,0.129
2023-02-22T04:15:23.902Z,0.102
2023-02-22T04:16:26.978Z,0.075
2023-02-22T04:17:26.853Z,0.091
2023-02-22T04:18:27.494Z,0.046
2023-02-22T04:19:23.879Z,0.072
2023-02-22T04:20:24.591Z,0.470
2023-02-22T04:21:24.225Z,0.820
2023-02-22T04:22:23.881Z,0.836
2023-02-22T04:23:24.492Z,0.964
2023-02-22T04:24:24.178Z,1.020
2023-02-22T04:25:23.840Z,1.103
2023-02-22T04:26:24.528Z,1.047
2023-02-22T04:27:24.172Z,0.970
2023-02-22T04:28:23.780Z,0.962
2023-02-22T04:29:24.478Z,0.935
2023-02-22T04:30:24.288Z,0.882
2023-02-22T04:31:24.146Z,0.930
2023-02-22T04:32:23.986Z,0.868
2023-02-22T04:33:24.604Z,0.860
2023-02-22T04:34:24.308Z,0.748
2023-02-22T04:35:23.973Z,0.604
2023-02-22T04:36:24.577Z,0.631
2023-02-22T04:37:24.222Z,0.743
2023-02-22T04:38:23.865Z,0.767
2023-02-22T04:39:24.646Z,0.826
2023-02-22T04:40:23.815Z,0.796
2023-02-22T04:41:25.572Z,0.761
2023-02-22T04:42:24.368Z,0.729
2023-02-22T04:43:24.003Z,0.719
2023-02-22T04:44:23.736Z,0.668
2023-02-22T04:45:24.412Z,0.575
2023-02-22T04:46:24.150Z,0.513
2023-02-22T04:47:24.088Z,0.404
2023-02-22T04:48:23.719Z,0.390
2023-02-22T04:49:24.392Z,0.428
2023-02-22T04:50:23.994Z,0.470
2023-02-22T04:51:24.656Z,0.438
2023-02-22T04:52:24.460Z,0.457
2023-02-22T04:53:24.033Z,0.422
2023-02-22T04:54:23.695Z,0.417
2023-02-22T04:55:24.322Z,0.460
2023-02-22T04:56:23.952Z,0.460
2023-02-22T04:57:23.710Z,0.428
2023-02-22T04:58:27.056Z,0.382
2023-02-22T04:59:23.714Z,0.393
2023-02-22T05:00:24.501Z,0.540
2023-02-22T05:01:24.185Z,0.553
2023-02-22T05:02:23.878Z,0.516
2023-02-22T05:03:24.621Z,0.489
2023-02-22T05:04:24.299Z,0.481
2023-02-22T05:05:24.091Z,0.585
2023-02-22T05:06:23.728Z,0.593
2023-02-22T05:07:24.609Z,0.623
2023-02-22T05:08:24.296Z,0.540
2023-02-22T05:09:23.895Z,0.380
2023-02-22T05:10:24.594Z,0.305
2023-02-22T05:11:24.165Z,0.262
2023-02-22T05:12:23.763Z,0.142
2023-02-22T05:13:24.451Z,0.107
2023-02-22T05:14:24.137Z,-0.010
2023-02-22T05:15:23.792Z,-0.010
2023-02-22T05:16:24.558Z,0.171
2023-02-22T05:17:24.207Z,0.209
2023-02-22T05:18:23.808Z,0.110
2023-02-22T05:19:24.443Z,0.062
2023-02-22T05:20:24.310Z,0.016
2023-02-22T05:21:23.939Z,-0.098
2023-02-22T05:22:24.592Z,-0.008
2023-02-22T05:23:24.159Z,0.062
2023-02-22T05:24:23.775Z,0.022
2023-02-22T05:25:25.371Z,-0.088
2023-02-22T05:26:24.160Z,0.064
2023-02-22T05:27:23.793Z,0.137
2023-02-22T05:28:24.465Z,0.145
2023-02-22T05:29:24.190Z,0.118
2023-02-22T05:30:23.849Z,0.006
2023-02-22T05:31:23.852Z,-0.042
2023-02-22T05:32:24.373Z,-0.093
2023-02-22T05:33:24.068Z,-0.090
2023-02-22T05:34:23.657Z,-0.064
2023-02-22T05:35:24.289Z,-0.144
2023-02-22T05:36:23.904Z,-0.224
2023-02-22T05:37:24.592Z,-0.240
2023-02-22T05:38:24.178Z,-0.237
2023-02-22T05:39:23.759Z,-0.253
2023-02-22T05:40:24.461Z,-0.235
2023-02-22T05:41:24.266Z,-0.195
2023-02-22T05:42:24.019Z,-0.205
2023-02-22T05:43:24.639Z,-0.179
2023-02-22T05:44:24.294Z,-0.192
2023-02-22T05:45:23.806Z,-0.211
2023-02-22T05:46:24.614Z,-0.219
2023-02-22T05:47:24.451Z,-0.253
2023-02-22T05:48:24.084Z,-0.203
2023-02-22T05:49:23.644Z,-0.203
2023-02-22T05:50:24.293Z,-0.245
2023-02-22T05:51:23.899Z,-0.272
2023-02-22T05:52:24.544Z,-0.269
2023-02-22T05:53:24.202Z,-0.240
2023-02-22T05:54:23.973Z,-0.261
2023-02-22T05:55:24.602Z,-0.229
2023-02-22T05:56:24.592Z,-0.229
2023-02-22T05:57:24.221Z,-0.229
2023-02-22T05:58:23.836Z,-0.285
2023-02-22T05:59:24.501Z,-0.280
2023-02-22T06:00:24.100Z,-0.288
2023-02-22T06:01:23.889Z,-0.248
2023-02-22T06:02:24.710Z,-0.211
2023-02-22T06:03:24.337Z,-0.237
2023-02-22T06:04:23.919Z,-0.160
2023-02-22T06:05:24.548Z,-0.152
2023-02-22T06:06:24.509Z,-0.219
2023-02-22T06:07:24.154Z,-0.189
2023-02-22T06:08:23.800Z,-0.256
2023-02-22T06:09:24.365Z,-0.299
2023-02-22T06:10:23.966Z,-0.299
2023-02-22T06:11:24.614Z,-0.293
2023-02-22T06:12:24.187Z,-0.275
2023-02-22T06:13:23.866Z,-0.261
2023-02-22T06:14:24.599Z,-0.272
2023-02-22T06:15:24.249Z,-0.277
2023-02-22T06:16:24.584Z,-0.293
2023-02-22T06:17:24.208Z,-0.267
2023-02-22T06:18:23.883Z,-0.227
2023-02-22T06:19:24.469Z,-0.296
2023-02-22T06:20:24.172Z,-0.229
2023-02-22T06:21:24.070Z,-0.259
2023-02-22T06:22:24.688Z,-0.285
2023-02-22T06:23:25.430Z,-0.243
2023-02-22T06:24:25.144Z,-0.208
2023-02-22T06:25:24.877Z,-0.179
2023-02-22T06:26:25.633Z,-0.101
2023-02-22T06:27:25.672Z,-0.098
2023-02-22T06:28:25.374Z,-0.149
2023-02-22T06:29:25.099Z,-0.117
2023-02-22T06:30:24.943Z,-0.197
2023-02-22T06:31:24.834Z,-0.240
2023-02-22T06:32:24.939Z,-0.179
2023-02-22T06:33:24.674Z,-0.208
2023-02-22T06:34:25.321Z,-0.197
2023-02-22T06:35:25.024Z,-0.149
2023-02-22T06:36:24.683Z,-0.160
2023-02-22T06:37:25.300Z,-0.074
2023-02-22T06:38:24.941Z,0.003
2023-02-22T06:39:25.590Z,0.040
2023-02-22T06:40:25.347Z,0.107
2023-02-22T06:41:24.976Z,0.105
2023-02-22T06:42:25.641Z,0.078
2023-02-22T06:43:25.399Z,0.072
2023-02-22T06:44:25.011Z,0.070
2023-02-22T06:45:24.725Z,0.056
2023-02-22T06:46:25.600Z,-0.016
2023-02-22T06:47:25.309Z,-0.024
2023-02-22T06:48:24.967Z,0.059
2023-02-22T06:49:25.572Z,0.059
2023-02-22T06:50:25.229Z,0.086
2023-02-22T06:51:24.925Z,0.059
2023-02-22T06:52:25.526Z,0.024
2023-02-22T06:53:25.208Z,0.091
2023-02-22T06:54:24.804Z,0.102
2023-02-22T06:55:25.416Z,0.129
2023-02-22T06:56:25.089Z,0.139
2023-02-22T06:57:24.726Z,0.161
2023-02-22T06:58:25.366Z,0.195
2023-02-22T06:59:25.064Z,0.265
2023-02-22T07:00:24.825Z,0.294
2023-02-22T07:01:24.721Z,0.307
2023-02-22T07:02:25.424Z,0.366
2023-02-22T07:03:25.138Z,0.404
2023-02-22T07:04:24.864Z,0.486
2023-02-22T07:05:24.881Z,0.607
2023-02-22T07:06:25.548Z,0.711
2023-02-22T07:07:25.172Z,0.863
2023-02-22T07:08:25.033Z,0.999
2023-02-22T07:09:24.696Z,1.111
2023-02-22T07:10:24.656Z,1.138
2023-02-22T07:11:25.312Z,1.287
2023-02-22T07:12:25.052Z,1.381
2023-02-22T07:13:24.668Z,1.549
2023-02-22T07:14:25.232Z,1.667
2023-02-22T07:15:24.961Z,1.816
2023-02-22T07:16:25.159Z,1.971
2023-02-22T07:17:25.044Z,2.083
2023-02-22T07:18:24.700Z,2.187
2023-02-22T07:19:25.329Z,2.081
2023-02-22T07:20:24.989Z,2.153
2023-02-22T07:21:25.653Z,2.214
2023-02-22T07:22:25.476Z,2.284
2023-02-22T07:23:25.102Z,2.364
2023-02-22T07:24:24.718Z,2.372
2023-02-22T07:25:25.400Z,2.171
2023-02-22T07:26:25.085Z,2.233
2023-02-22T07:27:24.671Z,2.086
2023-02-22T07:28:25.264Z,2.211
2023-02-22T07:29:24.839Z,2.217
2023-02-22T07:30:25.771Z,2.211
2023-02-22T07:31:24.805Z,2.195
2023-02-22T07:32:25.783Z,2.316
2023-02-22T07:33:25.032Z,2.297
2023-02-22T07:34:24.696Z,2.297
2023-02-22T07:35:25.436Z,2.350
2023-02-22T07:36:24.991Z,2.259
2023-02-22T07:37:25.639Z,2.286
2023-02-22T07:38:25.224Z,2.380
2023-02-22T07:39:24.847Z,2.401
2023-02-22T07:40:25.450Z,2.404
2023-02-22T07:41:25.107Z,2.465
2023-02-22T07:42:24.793Z,2.556
2023-02-22T07:43:25.454Z,2.583
2023-02-22T07:44:25.017Z,2.623
2023-02-22T07:45:25.671Z,2.700
2023-02-22T07:46:25.591Z,2.735
2023-02-22T07:47:25.204Z,2.796
2023-02-22T07:48:24.872Z,2.826
2023-02-22T07:49:25.567Z,2.799
2023-02-22T07:50:25.185Z,2.911
2023-02-22T07:51:24.795Z,2.980
2023-02-22T07:52:25.318Z,3.010
2023-02-22T07:53:25.869Z,2.970
2023-02-22T07:54:25.029Z,2.986
2023-02-22T07:55:24.688Z,3.061
2023-02-22T07:56:25.293Z,3.189
2023-02-22T07:57:24.965Z,3.221
2023-02-22T07:58:25.653Z,3.234
2023-02-22T07:59:25.287Z,3.234
2023-02-22T08:00:24.941Z,3.173
2023-02-22T08:01:24.713Z,3.293
2023-02-22T08:02:25.368Z,3.223
2023-02-22T08:03:25.268Z,3.325
2023-02-22T08:04:25.045Z,3.354
2023-02-22T08:05:24.873Z,3.458
2023-02-22T08:06:25.507Z,3.584
2023-02-22T08:07:25.140Z,3.677
2023-02-22T08:08:24.838Z,3.712
2023-02-22T08:09:25.419Z,3.584
2023-02-22T08:10:25.192Z,3.600
2023-02-22T08:11:24.921Z,3.531
2023-02-22T08:12:24.648Z,3.507
2023-02-22T08:13:25.343Z,3.643
2023-02-22T08:14:25.135Z,3.755
2023-02-22T08:15:24.720Z,3.701
2023-02-22T08:16:25.337Z,3.830
2023-02-22T08:17:26.528Z,3.894
2023-02-22T08:18:25.389Z,4.046
2023-02-22T08:19:24.969Z,4.073
2023-02-22T08:20:24.723Z,4.257
2023-02-22T08:21:25.398Z,4.292
2023-02-22T08:22:25.161Z,4.414
2023-02-22T08:23:24.885Z,4.559
2023-02-22T08:24:25.481Z,4.529
2023-02-22T08:25:25.095Z,4.601
2023-02-22T08:26:24.709Z,4.796
2023-02-22T08:27:25.483Z,4.714
2023-02-22T08:28:25.324Z,4.876
2023-02-22T08:29:24.966Z,4.727
2023-02-22T08:30:25.726Z,4.663
2023-02-22T08:31:25.637Z,4.770
2023-02-22T08:32:25.926Z,4.911
2023-02-22T08:33:25.370Z,4.860
2023-02-22T08:34:25.139Z,5.058
2023-02-22T08:35:24.848Z,5.224
2023-02-22T08:36:25.489Z,5.159
2023-02-22T08:37:25.470Z,5.346
2023-02-22T08:39:24.914Z,5.718
2023-02-22T08:40:25.599Z,5.661
2023-02-22T08:41:25.292Z,5.937
2023-02-22T08:42:24.984Z,5.472
2023-02-22T08:43:24.886Z,5.525
2023-02-22T08:44:25.667Z,5.715
2023-02-22T08:45:25.286Z,5.750
2023-02-22T08:46:24.953Z,5.902
2023-02-22T08:47:25.593Z,6.033
2023-02-22T08:48:25.285Z,6.014
2023-02-22T08:49:24.960Z,6.158
2023-02-22T08:50:24.747Z,6.254
2023-02-22T08:51:26.869Z,6.345
2023-02-22T08:52:25.350Z,6.358
2023-02-22T08:53:25.021Z,6.676
2023-02-22T08:54:24.706Z,6.901
2023-02-22T08:55:25.445Z,7.029
2023-02-22T08:56:25.031Z,7.018
2023-02-22T08:57:24.730Z,7.023
2023-02-22T08:58:25.414Z,7.176
2023-02-22T08:59:25.040Z,7.357
2023-02-22T09:00:24.750Z,7.552
2023-02-22T09:01:32.819Z,7.597
2023-02-22T09:02:25.679Z,7.571
2023-02-22T09:03:25.396Z,7.811
2023-02-22T09:04:25.084Z,8.001
2023-02-22T09:05:24.766Z,8.132
2023-02-22T09:06:25.681Z,8.252
2023-02-22T09:07:25.321Z,8.148
2023-02-22T09:08:24.887Z,8.257
2023-02-22T09:09:25.496Z,8.439
2023-02-22T09:10:25.161Z,8.642
2023-02-22T09:11:24.741Z,8.679
2023-02-22T09:12:25.420Z,8.703
2023-02-22T09:13:25.033Z,8.770
2023-02-22T09:14:25.657Z,8.583
2023-02-22T09:15:25.384Z,8.711
2023-02-22T09:16:25.040Z,9.186
2023-02-22T09:17:25.008Z,9.160
2023-02-22T09:18:26.951Z,9.696
2023-02-22T09:19:25.140Z,9.969
2023-02-22T09:20:24.768Z,10.222
2023-02-22T09:21:25.397Z,10.289
2023-02-22T09:22:25.137Z,10.337
2023-02-22T09:23:25.641Z,10.332
2023-02-22T09:24:25.355Z,10.260
2023-02-22T09:25:29.957Z,10.674
2023-02-22T09:26:25.585Z,10.377
2023-02-22T09:27:25.181Z,10.764
2023-02-22T09:28:24.980Z,10.644
2023-02-22T09:29:25.049Z,10.420
2023-02-22T09:30:24.811Z,10.922
2023-02-22T09:31:25.620Z,10.911
2023-02-22T09:32:25.833Z,10.951
2023-02-22T09:33:25.553Z,11.018
2023-02-22T09:34:25.193Z,11.109
2023-02-22T09:35:24.804Z,11.258
2023-02-22T09:36:26.247Z,11.488
2023-02-22T09:37:25.036Z,11.664
2023-02-22T09:38:24.720Z,11.785
2023-02-22T09:39:25.416Z,11.790
2023-02-22T09:40:25.207Z,11.963
2023-02-22T09:41:25.418Z,12.153
2023-02-22T09:42:25.074Z,12.457
2023-02-22T09:43:24.796Z,12.436
2023-02-22T09:44:26.138Z,12.423
2023-02-22T09:45:24.913Z,12.815
2023-02-22T09:46:24.866Z,12.818
2023-02-22T09:47:25.538Z,12.457
2023-02-22T09:48:30.324Z,12.535
2023-02-22T09:49:24.945Z,12.749
2023-02-22T09:50:25.630Z,12.893
2023-02-22T09:51:25.341Z,13.064
2023-02-22T09:52:25.010Z,13.146
2023-02-22T09:53:26.375Z,12.337
2023-02-22T09:54:25.064Z,12.535
2023-02-22T09:55:24.721Z,12.636
2023-02-22T09:56:25.396Z,12.951
2023-02-22T09:57:25.056Z,12.887
2023-02-22T09:58:24.693Z,12.789
2023-02-22T09:59:25.512Z,12.751
2023-02-22T10:00:25.273Z,13.005
2023-02-22T10:01:24.961Z,12.687
2023-02-22T10:02:24.902Z,12.724
2023-02-22T10:03:25.684Z,12.890
2023-02-22T10:04:25.569Z,12.797
2023-02-22T10:05:25.338Z,12.831
2023-02-22T10:06:25.200Z,12.861
2023-02-22T10:07:24.768Z,12.762
2023-02-22T10:08:25.439Z,12.807
2023-02-22T10:09:25.173Z,12.989
2023-02-22T10:10:24.852Z,13.037
2023-02-22T10:11:25.695Z,13.016
2023-02-22T10:12:25.650Z,13.552
2023-02-22T10:13:25.287Z,13.902
2023-02-22T10:14:24.972Z,13.891
2023-02-22T10:15:25.343Z,13.870
2023-02-22T10:16:25.647Z,14.020
2023-02-22T10:17:25.486Z,14.009
2023-02-22T10:18:25.202Z,13.996
2023-02-22T10:19:24.969Z,13.958
2023-02-22T10:20:25.624Z,13.966
2023-02-22T10:21:26.008Z,14.070
2023-02-22T10:22:25.671Z,13.942
2023-02-22T10:23:25.797Z,13.921
2023-02-22T10:24:27.500Z,13.998
2023-02-22T10:25:27.381Z,14.140
2023-02-22T10:26:25.755Z,14.249
2023-02-22T10:27:25.476Z,14.492
2023-02-22T10:28:25.155Z,14.185
2023-02-22T10:29:24.781Z,14.490
2023-02-22T10:30:34.245Z,14.308
2023-02-22T10:32:27.356Z,14.078
2023-02-22T10:33:27.079Z,14.492
2023-02-22T10:34:26.980Z,14.687
2023-02-22T10:35:28.982Z,14.239
2023-02-22T10:36:27.544Z,14.100
2023-02-22T10:37:27.233Z,14.345
2023-02-22T10:38:27.008Z,14.361
2023-02-22T10:39:26.757Z,14.284
2023-02-22T10:40:27.537Z,13.825
2023-02-22T10:41:27.184Z,14.121
2023-02-22T10:42:26.894Z,14.599
2023-02-22T10:43:27.525Z,14.567
2023-02-22T10:44:27.214Z,14.396
2023-02-22T10:45:26.893Z,14.265
2023-02-22T10:46:26.880Z,14.423
2023-02-22T10:47:27.487Z,14.148
2023-02-22T10:48:27.125Z,14.519
2023-02-22T10:49:26.851Z,14.474
2023-02-22T10:50:27.529Z,14.527
2023-02-22T10:51:27.265Z,14.367
2023-02-22T10:52:28.674Z,14.698
2023-02-22T10:53:26.842Z,15.053
2023-02-22T10:54:27.316Z,14.911
2023-02-22T10:55:31.876Z,15.216
2023-02-22T10:57:27.813Z,15.478
2023-02-22T10:58:27.454Z,15.446
2023-02-22T10:59:27.156Z,15.293
2023-02-22T11:00:26.948Z,14.871
2023-02-22T11:01:27.726Z,15.392
2023-02-22T11:02:27.543Z,15.737
2023-02-22T11:03:27.217Z,15.352
2023-02-22T11:04:26.897Z,16.004
2023-02-22T11:05:27.788Z,16.151
2023-02-22T11:06:27.425Z,16.207
2023-02-22T11:07:27.157Z,16.028
2023-02-22T11:08:26.761Z,16.191
2023-02-22T11:09:27.453Z,16.017
2023-02-22T11:10:27.153Z,16.129
2023-02-22T11:11:26.834Z,16.017
2023-02-22T11:12:27.631Z,15.787
2023-02-22T11:13:27.374Z,15.705
2023-02-22T11:14:27.092Z,15.718
2023-02-22T11:15:26.742Z,15.675
2023-02-22T11:16:27.479Z,15.990
2023-02-22T11:17:27.498Z,16.038
2023-02-22T11:18:27.226Z,16.231
2023-02-22T11:19:26.938Z,15.993
2023-02-22T11:20:27.667Z,16.212
2023-02-22T11:21:27.410Z,16.327
2023-02-22T11:22:27.063Z,16.698
2023-02-22T11:23:26.828Z,16.570
2023-02-22T11:24:28.646Z,16.196
2023-02-22T11:25:27.343Z,16.156
2023-02-22T11:26:27.071Z,15.875
2023-02-22T11:27:26.752Z,16.060
2023-02-22T11:28:27.360Z,16.559
2023-02-22T11:29:26.809Z,16.834
2023-02-22T11:30:27.610Z,16.765
2023-02-22T11:31:26.995Z,17.363
2023-02-22T11:32:27.218Z,16.706
2023-02-22T11:33:26.940Z,16.954
2023-02-22T11:34:26.809Z,17.149
2023-02-22T11:35:27.620Z,17.171
2023-02-22T11:36:27.488Z,17.261
2023-02-22T11:37:27.289Z,17.128
2023-02-22T11:38:26.953Z,17.299
2023-02-22T11:39:27.833Z,17.061
2023-02-22T11:40:26.798Z,16.548
2023-02-22T11:41:27.628Z,17.005
2023-02-22T11:42:27.370Z,17.098
2023-02-22T11:43:27.026Z,17.584
2023-02-22T11:44:26.668Z,16.778
2023-02-22T11:45:27.332Z,16.567
2023-02-22T11:47:30.585Z,16.997
2023-02-22T11:48:30.265Z,16.973
2023-02-22T11:49:29.984Z,17.136
2023-02-22T11:50:30.685Z,16.653
2023-02-22T11:51:32.259Z,16.909
2023-02-22T11:52:29.837Z,17.032
2023-02-22T11:53:30.516Z,16.562
2023-02-22T11:55:42.090Z,17.058
2023-02-22T11:57:29.992Z,16.396
2023-02-22T11:58:31.415Z,16.818
2023-02-22T11:59:30.179Z,16.054
2023-02-22T12:00:30.058Z,16.231
2023-02-22T12:01:29.767Z,16.121
2023-02-22T12:02:30.445Z,16.052
2023-02-22T12:03:30.398Z,16.369
2023-02-22T12:04:30.486Z,16.570
2023-02-22T12:05:29.704Z,16.052
2023-02-22T12:06:30.316Z,16.244
2023-02-22T12:07:30.082Z,16.594
2023-02-22T12:08:34.697Z,16.132
2023-02-22T12:09:30.541Z,16.765
2023-02-22T12:10:30.322Z,16.484
2023-02-22T12:11:30.005Z,16.663
2023-02-22T12:12:29.703Z,16.017
2023-02-22T12:13:30.361Z,16.332
2023-02-22T12:14:30.109Z,16.690
2023-02-22T12:15:29.854Z,16.420
2023-02-22T12:16:29.801Z,16.279
2023-02-22T12:17:30.673Z,16.807
2023-02-22T12:19:30.789Z,16.898
2023-02-22T12:20:31.557Z,17.149
2023-02-22T12:21:31.283Z,17.085
2023-02-22T12:22:30.936Z,17.414
2023-02-22T12:23:31.472Z,16.399
2023-02-22T12:24:31.185Z,17.107
2023-02-22T12:25:31.149Z,17.435
2023-02-22T12:26:30.798Z,17.734
2023-02-22T12:27:31.544Z,17.237
2023-02-22T12:28:36.244Z,16.968
2023-02-22T12:29:31.261Z,16.949
2023-02-22T12:30:31.052Z,16.797
2023-02-22T12:31:31.100Z,16.858
2023-02-22T12:32:31.455Z,16.839
2023-02-22T12:33:31.499Z,17.528
2023-02-22T12:34:32.613Z,17.646
2023-02-22T12:35:31.359Z,17.251
2023-02-22T12:36:31.069Z,17.526
2023-02-22T12:37:30.789Z,17.539
2023-02-22T12:38:31.520Z,17.881
2023-02-22T12:39:36.031Z,18.137
2023-02-22T12:41:31.010Z,18.330
2023-02-22T12:42:30.744Z,17.988
2023-02-22T12:43:31.449Z,18.498
2023-02-22T12:44:31.169Z,18.097
2023-02-22T12:45:30.905Z,18.265
2023-02-22T12:46:31.607Z,18.615
2023-02-22T12:47:31.451Z,18.482
2023-02-22T12:48:31.177Z,17.526
2023-02-22T12:49:30.804Z,16.888
2023-02-22T12:50:33.553Z,17.093
2023-02-22T12:51:31.152Z,17.438
2023-02-22T12:52:35.611Z,17.323